createdAt,value
2023-01-26T00:00:27.177Z,87.91
2023-01-26T00:05:55.332Z,87.85
2023-01-26T00:11:06.728Z,87.77
2023-01-26T00:16:15.787Z,87.71
2023-01-26T00:21:25.518Z,87.70
2023-01-26T00:26:32.241Z,88.00
2023-01-26T00:31:40.981Z,87.79
2023-01-26T00:36:48.767Z,87.88
2023-01-26T00:42:14.395Z,87.76
2023-01-26T00:47:21.517Z,88.04
2023-01-26T00:52:32.057Z,87.90
2023-01-26T00:57:39.591Z,88.03
2023-01-26T01:02:45.963Z,87.93
2023-01-26T01:07:55.665Z,87.96
2023-01-26T01:13:02.319Z,88.12
2023-01-26T01:18:11.827Z,87.91
2023-01-26T01:23:19.952Z,88.00
2023-01-26T01:28:26.679Z,88.29
2023-01-26T01:33:33.462Z,88.32
2023-01-26T01:38:42.016Z,88.45
2023-01-26T01:43:48.983Z,88.43
2023-01-26T01:49:00.142Z,88.43
2023-01-26T01:54:13.912Z,88.52
2023-01-26T01:59:22.817Z,88.36
2023-01-26T02:04:29.266Z,88.47
2023-01-26T02:09:58.590Z,88.53
2023-01-26T02:15:05.777Z,88.57
2023-01-26T02:20:22.596Z,88.70
2023-01-26T02:25:43.733Z,88.64
2023-01-26T02:30:52.569Z,88.48
2023-01-26T02:35:59.037Z,88.80
2023-01-26T02:41:09.787Z,88.87
2023-01-26T02:46:18.319Z,88.87
2023-01-26T02:51:25.086Z,88.96
2023-01-26T02:56:32.147Z,88.72
2023-01-26T03:01:40.604Z,88.70
2023-01-26T03:06:47.576Z,88.73
2023-01-26T03:11:54.266Z,88.71
2023-01-26T03:17:02.670Z,88.90
2023-01-26T03:22:29.695Z,88.78
2023-01-26T03:27:46.593Z,88.93
2023-01-26T03:32:57.188Z,88.79
2023-01-26T03:38:04.249Z,88.91
2023-01-26T03:43:41.135Z,88.95
2023-01-26T03:49:07.932Z,89.06
2023-01-26T03:54:33.715Z,89.07
2023-01-26T03:59:40.362Z,89.28
2023-01-26T04:05:09.598Z,89.23
2023-01-26T04:10:18.446Z,88.75
2023-01-26T04:15:43.301Z,88.74
2023-01-26T04:21:08.952Z,88.81
2023-01-26T04:26:17.220Z,88.92
2023-01-26T04:31:23.793Z,89.13
2023-01-26T04:36:34.477Z,88.96
2023-01-26T04:41:42.505Z,89.17
2023-01-26T04:46:52.187Z,89.38
2023-01-26T04:52:00.317Z,89.35
2023-01-26T04:57:10.535Z,89.29
2023-01-26T05:02:20.540Z,89.54
2023-01-26T05:07:28.492Z,89.58
2023-01-26T05:12:38.668Z,89.68
2023-01-26T05:18:05.913Z,89.56
2023-01-26T05:23:32.305Z,89.68
2023-01-26T05:28:44.409Z,89.75
2023-01-26T05:33:51.024Z,89.92
2023-01-26T05:39:03.896Z,89.91
2023-01-26T05:44:11.113Z,89.72
2023-01-26T05:49:23.769Z,89.72
2023-01-26T05:54:33.166Z,90.19
2023-01-26T05:59:40.419Z,89.78
2023-01-26T06:04:48.212Z,89.83
2023-01-26T06:09:57.037Z,89.81
2023-01-26T06:15:26.931Z,90.08
2023-01-26T06:20:35.361Z,89.98
2023-01-26T06:25:46.472Z,89.50
2023-01-26T06:30:54.119Z,90.05
2023-01-26T06:36:04.469Z,89.86
2023-01-26T06:41:13.645Z,89.84
2023-01-26T06:46:23.074Z,89.85
2023-01-26T06:51:58.715Z,89.83
2023-01-26T06:57:23.840Z,89.81
2023-01-26T07:03:05.725Z,89.74
2023-01-26T07:08:12.220Z,89.74
2023-01-26T07:13:20.254Z,90.09
2023-01-26T07:18:26.768Z,89.91
2023-01-26T07:23:35.021Z,89.86
2023-01-26T07:28:43.227Z,89.58
2023-01-26T07:33:50.721Z,89.81
2023-01-26T07:38:57.225Z,90.13
2023-01-26T07:44:08.632Z,89.73
2023-01-26T07:49:18.219Z,89.71
2023-01-26T07:54:26.566Z,89.56
2023-01-26T07:59:34.551Z,89.79
2023-01-26T08:04:40.836Z,89.74
2023-01-26T08:09:47.460Z,89.82
2023-01-26T08:14:56.423Z,89.76
2023-01-26T08:20:02.929Z,89.76
2023-01-26T08:25:11.351Z,89.84
2023-01-26T08:30:20.209Z,89.75
2023-01-26T08:35:26.691Z,89.83
2023-01-26T08:40:32.979Z,89.64
2023-01-26T08:45:42.114Z,89.40
2023-01-26T08:50:50.085Z,89.45
2023-01-26T08:55:56.752Z,89.46
2023-01-26T09:01:07.470Z,89.60
2023-01-26T09:06:16.262Z,89.61
2023-01-26T09:11:22.804Z,89.38
2023-01-26T09:16:31.078Z,89.11
2023-01-26T09:21:38.020Z,89.05
2023-01-26T09:26:44.763Z,88.75
2023-01-26T09:31:52.891Z,88.81
2023-01-26T09:36:59.496Z,88.83
2023-01-26T09:42:28.137Z,88.70
2023-01-26T09:47:52.084Z,88.93
2023-01-26T09:53:04.204Z,88.63
2023-01-26T09:58:21.757Z,88.49
2023-01-26T10:03:41.257Z,88.48
2023-01-26T10:08:47.742Z,88.36
2023-01-26T10:14:00.163Z,88.40
2023-01-26T10:19:16.112Z,87.85
2023-01-26T10:24:25.616Z,87.78
2023-01-26T10:29:32.684Z,87.98
2023-01-26T10:34:42.718Z,87.53
2023-01-26T10:40:01.298Z,87.40
2023-01-26T10:45:27.607Z,87.11
2023-01-26T10:50:36.004Z,87.08
2023-01-26T10:55:43.721Z,86.72
2023-01-26T11:00:58.434Z,86.81
2023-01-26T11:06:16.335Z,86.85
2023-01-26T11:11:29.260Z,86.43
2023-01-26T11:16:36.224Z,86.23
2023-01-26T11:21:50.588Z,85.92
2023-01-26T11:27:38.800Z,86.03
2023-01-26T11:32:57.490Z,85.98
2023-01-26T11:38:18.233Z,86.07
2023-01-26T11:43:50.458Z,85.72
2023-01-26T11:49:14.906Z,85.90
2023-01-26T11:54:41.071Z,85.67
2023-01-26T11:59:52.933Z,85.80
2023-01-26T12:05:03.569Z,85.74
2023-01-26T12:10:16.628Z,86.21
2023-01-26T12:15:30.145Z,85.71
2023-01-26T12:20:42.362Z,84.93
2023-01-26T12:25:56.611Z,84.94
2023-01-26T12:31:14.951Z,85.24
2023-01-26T12:36:37.678Z,85.33
2023-01-26T12:42:13.928Z,85.09
2023-01-26T12:47:26.054Z,85.21
2023-01-26T12:52:40.693Z,85.34
2023-01-26T12:57:56.482Z,85.19
2023-01-26T13:03:09.700Z,85.31
2023-01-26T13:08:54.208Z,85.40
2023-01-26T13:14:02.546Z,85.42
2023-01-26T13:19:38.024Z,85.10
2023-01-26T13:24:47.368Z,84.66
2023-01-26T13:29:59.999Z,84.41
2023-01-26T13:35:12.272Z,84.59
2023-01-26T13:40:24.726Z,84.60
2023-01-26T13:45:41.325Z,84.60
2023-01-26T13:50:53.153Z,84.88
2023-01-26T13:56:02.623Z,84.34
2023-01-26T14:01:17.310Z,84.26
2023-01-26T14:06:24.925Z,84.17
2023-01-26T14:11:34.985Z,84.28
2023-01-26T14:16:43.551Z,84.47
2023-01-26T14:21:53.859Z,84.61
2023-01-26T14:27:01.065Z,84.34
2023-01-26T14:32:18.153Z,84.77
2023-01-26T14:37:27.343Z,84.87
2023-01-26T14:42:33.628Z,84.98
2023-01-26T14:47:43.092Z,85.18
2023-01-26T14:52:49.556Z,85.40
2023-01-26T14:57:56.542Z,85.56
2023-01-26T15:03:14.547Z,85.62
2023-01-26T15:08:24.633Z,85.42
2023-01-26T15:13:34.023Z,85.64
2023-01-26T15:18:42.023Z,85.67
2023-01-26T15:23:54.359Z,85.13
2023-01-26T15:29:03.890Z,85.12
2023-01-26T15:34:36.634Z,85.32
2023-01-26T15:39:43.922Z,85.33
2023-01-26T15:44:50.771Z,85.37
2023-01-26T15:49:58.879Z,85.39
2023-01-26T15:55:23.215Z,85.53
2023-01-26T16:00:29.755Z,85.63
2023-01-26T16:05:37.977Z,85.43
2023-01-26T16:10:44.824Z,85.59
2023-01-26T16:15:53.148Z,85.59
2023-01-26T16:21:01.487Z,85.15
2023-01-26T16:26:10.919Z,85.53
2023-01-26T16:31:20.989Z,85.00
2023-01-26T16:36:29.951Z,84.96
2023-01-26T16:41:37.064Z,85.03
2023-01-26T16:46:44.950Z,85.01
2023-01-26T16:51:53.428Z,84.77
2023-01-26T16:57:01.038Z,84.83
2023-01-26T17:02:21.215Z,85.08
2023-01-26T17:07:29.809Z,85.21
2023-01-26T17:12:37.479Z,85.63
2023-01-26T17:17:45.984Z,85.94
2023-01-26T17:22:54.739Z,85.94
2023-01-26T17:28:02.248Z,85.81
2023-01-26T17:33:09.362Z,86.14
2023-01-26T17:38:17.840Z,86.06
2023-01-26T17:43:25.403Z,85.94
2023-01-26T17:48:32.912Z,85.88
2023-01-26T17:53:44.439Z,85.78
2023-01-26T17:58:56.222Z,85.71
2023-01-26T18:04:05.238Z,85.94
2023-01-26T18:09:14.653Z,85.57
2023-01-26T18:14:22.387Z,85.68
2023-01-26T18:19:31.517Z,85.45
2023-01-26T18:24:43.927Z,85.40
2023-01-26T18:29:53.383Z,84.95
2023-01-26T18:35:02.043Z,84.79
2023-01-26T18:40:13.866Z,85.09
2023-01-26T18:45:21.091Z,85.57
2023-01-26T18:50:28.323Z,85.58
2023-01-26T18:55:37.033Z,85.08
2023-01-26T19:00:45.548Z,85.30
2023-01-26T19:05:57.804Z,85.28
2023-01-26T19:11:15.330Z,85.07
2023-01-26T19:16:24.921Z,84.80
2023-01-26T19:21:35.378Z,84.84
2023-01-26T19:26:47.365Z,84.91
2023-01-26T19:31:58.485Z,84.27
2023-01-26T19:37:08.745Z,84.34
2023-01-26T19:42:20.303Z,84.67
2023-01-26T19:47:31.456Z,84.83
2023-01-26T19:52:40.618Z,84.74
2023-01-26T19:57:51.734Z,84.46
2023-01-26T20:03:01.308Z,84.19
2023-01-26T20:08:10.135Z,84.17
2023-01-26T20:13:20.316Z,84.42
2023-01-26T20:18:30.133Z,84.18
2023-01-26T20:23:53.604Z,84.16
2023-01-26T20:29:04.229Z,83.96
2023-01-26T20:34:14.582Z,84.01
2023-01-26T20:39:25.990Z,84.40
2023-01-26T20:44:37.198Z,84.74
2023-01-26T20:49:45.560Z,84.90
2023-01-26T20:54:54.831Z,84.88
2023-01-26T21:00:04.798Z,84.58
2023-01-26T21:05:13.950Z,84.23
2023-01-26T21:10:21.371Z,84.84
2023-01-26T21:15:30.738Z,85.17
2023-01-26T21:20:37.651Z,85.09
2023-01-26T21:25:44.912Z,85.06
2023-01-26T21:31:02.836Z,84.94
2023-01-26T21:36:13.698Z,84.89
2023-01-26T21:41:43.039Z,85.20
2023-01-26T21:46:56.103Z,84.98
2023-01-26T21:52:21.813Z,84.81
2023-01-26T21:57:45.897Z,84.77
2023-01-26T22:02:54.884Z,84.63
2023-01-26T22:08:01.915Z,84.52
2023-01-26T22:13:09.133Z,84.89
2023-01-26T22:18:17.531Z,85.09
2023-01-26T22:23:24.800Z,84.81
2023-01-26T22:28:33.966Z,84.60
2023-01-26T22:33:42.302Z,84.57
2023-01-26T22:38:49.513Z,84.44
2023-01-26T22:43:58.873Z,84.55
2023-01-26T22:49:07.179Z,84.91
2023-01-26T22:54:13.631Z,84.70
2023-01-26T22:59:20.549Z,84.55
2023-01-26T23:04:30.137Z,84.49
2023-01-26T23:09:37.988Z,84.85
2023-01-26T23:14:44.850Z,85.19
2023-01-26T23:19:54.054Z,84.91
2023-01-26T23:25:18.053Z,84.66
2023-01-26T23:30:25.034Z,84.62
2023-01-26T23:35:33.139Z,83.93
2023-01-26T23:40:40.994Z,84.10
2023-01-26T23:45:48.557Z,84.01
2023-01-26T23:51:00.361Z,83.89
2023-01-26T23:56:11.672Z,83.88
